PWSweather.com
Personal Weather Stations
Station Observations
STPETERS
BroadstairsGB

BroadstairsGB

Lat: 51.37, Lon: 1.423

Elevation: 141

Station Type: WH1081

Latest ConditionsUpdated 9:45:00 AM GMT Friday, Aug 29, 2014
Currently Today's Max Today's Min Today's Average
Temperature 66.4°F19.1°C 66.9°F19.4°C 57.7°F14.3°C 60.1°F15.6°C
Dew Point 58.2°F14.6°C 59.3°F15.2°C 56.6°F13.7°C 57.7°F14.3°C
Winds 12.3 mph W19.8 kmh W 12.7 mph SW20.4 kmh SW - 7.1 mph 11.4 kmh
Wind Gusts 16.8 mph27.0 kmh 18.3 mph29.5 kmh - -
Humidity 75% 96% 71% 92%
Pressure 29.93 in1013.5 mb 29.93 in1013.5 mb 29.91 in1012.9 mb -
Hour Temp Dew Point Humidity Winds Wind Gusts Pressure Precip Precip Rate Daily Precip Total
09:45 AM 66.4°F19.1°C 58.2°F14.6°C 75% 12.3 mph W19.8 kmh W 16.8 mph27.0 kmh 29.93 in1013.5 mb 0.00 in0.0 mm 0.00 in/hr0.0 mm/hr 0.00 in0.0 mm
09:30 AM 66.9°F19.4°C 57.2°F14.0°C 71% 12.7 mph SW20.4 kmh SW 17.4 mph28.0 kmh 29.93 in1013.5 mb 0.00 in0.0 mm 0.00 in/hr0.0 mm/hr 0.00 in0.0 mm
09:15 AM 66.9°F19.4°C 58.8°F14.9°C 75% 11.9 mph SW19.2 kmh SW 14.5 mph23.3 kmh 29.92 in1013.2 mb 0.00 in0.0 mm 0.00 in/hr0.0 mm/hr 0.00 in0.0 mm
09:00 AM 65.7°F18.7°C 58.3°F14.6°C 77% 10.0 mph W16.1 kmh W 16.8 mph27.0 kmh 29.93 in1013.5 mb 0.00 in0.0 mm 0.00 in/hr0.0 mm/hr 0.00 in0.0 mm
08:45 AM 64.8°F18.2°C 58.5°F14.7°C 80% 9.4 mph SW15.1 kmh SW 12.1 mph19.5 kmh 29.92 in1013.2 mb 0.00 in0.0 mm 0.00 in/hr0.0 mm/hr 0.00 in0.0 mm
08:30 AM 64.4°F18.0°C 58.5°F14.7°C 81% 9.9 mph SW15.9 kmh SW 13.6 mph21.9 kmh 29.92 in1013.2 mb 0.00 in0.0 mm 0.00 in/hr0.0 mm/hr 0.00 in0.0 mm
08:15 AM 63.7°F17.6°C 58.8°F14.9°C 84% 10.3 mph SW16.6 kmh SW 18.3 mph29.5 kmh 29.92 in1013.2 mb 0.00 in0.0 mm 0.00 in/hr0.0 mm/hr 0.00 in0.0 mm
08:00 AM 63.1°F17.3°C 58.6°F14.8°C 85% 10.4 mph WSW16.7 kmh WSW 15.9 mph25.6 kmh 29.92 in1013.2 mb 0.00 in0.0 mm 0.00 in/hr0.0 mm/hr 0.00 in0.0 mm
07:45 AM 62.8°F17.1°C 59.2°F15.1°C 88% 9.4 mph SW15.1 kmh SW 13.0 mph20.9 kmh 29.92 in1013.2 mb 0.00 in0.0 mm 0.00 in/hr0.0 mm/hr 0.00 in0.0 mm
07:30 AM 61.9°F16.6°C 59.2°F15.1°C 91% 8.6 mph WSW13.8 kmh WSW 14.5 mph23.3 kmh 29.92 in1013.2 mb 0.00 in0.0 mm 0.00 in/hr0.0 mm/hr 0.00 in0.0 mm
07:15 AM 61.2°F16.2°C 59.1°F15.1°C 93% 8.5 mph WSW13.7 kmh WSW 11.4 mph18.3 kmh 29.92 in1013.2 mb 0.00 in0.0 mm 0.00 in/hr0.0 mm/hr 0.00 in0.0 mm
07:00 AM 60.4°F15.8°C 59.3°F15.2°C 96% 8.0 mph S12.9 kmh S 11.4 mph18.3 kmh 29.92 in1013.2 mb 0.00 in0.0 mm 0.00 in/hr0.0 mm/hr 0.00 in0.0 mm
06:45 AM 59.7°F15.4°C 58.6°F14.8°C 96% 8.9 mph S14.3 kmh S 16.8 mph27.0 kmh 29.92 in1013.2 mb 0.00 in0.0 mm 0.00 in/hr0.0 mm/hr 0.00 in0.0 mm
06:30 AM 59.0°F15.0°C 57.9°F14.4°C 96% 6.8 mph WSW10.9 kmh WSW 9.2 mph14.8 kmh 29.92 in1013.2 mb 0.00 in0.0 mm 0.00 in/hr0.0 mm/hr 0.00 in0.0 mm
06:15 AM 58.5°F14.7°C 57.3°F14.1°C 96% 5.0 mph SW8.0 kmh SW 6.9 mph11.1 kmh 29.92 in1013.2 mb 0.00 in0.0 mm 0.00 in/hr0.0 mm/hr 0.00 in0.0 mm
06:00 AM 58.1°F14.5°C 57.0°F13.9°C 96% 4.8 mph SW7.7 kmh SW 6.0 mph9.7 kmh 29.92 in1013.2 mb 0.00 in0.0 mm 0.00 in/hr0.0 mm/hr 0.00 in0.0 mm
05:45 AM 57.9°F14.4°C 56.8°F13.8°C 96% 5.3 mph SSW8.5 kmh SSW 7.6 mph12.2 kmh 29.92 in1013.2 mb 0.00 in0.0 mm 0.00 in/hr0.0 mm/hr 0.00 in0.0 mm
05:30 AM 57.7°F14.3°C 56.6°F13.7°C 96% 5.2 mph SSW8.4 kmh SSW 7.6 mph12.2 kmh 29.92 in1013.2 mb 0.00 in0.0 mm 0.00 in/hr0.0 mm/hr 0.00 in0.0 mm
05:15 AM 57.7°F14.3°C 56.6°F13.7°C 96% 6.1 mph SSW9.8 kmh SSW 9.2 mph14.8 kmh 29.91 in1012.9 mb 0.00 in0.0 mm 0.00 in/hr0.0 mm/hr 0.00 in0.0 mm
05:00 AM 57.7°F14.3°C 56.6°F13.7°C 96% 7.5 mph S12.1 kmh S 9.2 mph14.8 kmh 29.91 in1012.9 mb 0.00 in0.0 mm 0.00 in/hr0.0 mm/hr 0.00 in0.0 mm
04:45 AM 57.7°F14.3°C 56.6°F13.7°C 96% 6.2 mph WSW10.0 kmh WSW 9.8 mph15.8 kmh 29.91 in1012.9 mb 0.00 in0.0 mm 0.00 in/hr0.0 mm/hr 0.00 in0.0 mm
04:30 AM 57.9°F14.4°C 56.8°F13.8°C 96% 6.3 mph SSW10.1 kmh SSW 9.2 mph14.8 kmh 29.91 in1012.9 mb 0.00 in0.0 mm 0.00 in/hr0.0 mm/hr 0.00 in0.0 mm
04:15 AM 57.9°F14.4°C 56.8°F13.8°C 96% 4.6 mph SW7.4 kmh SW 6.9 mph11.1 kmh 29.92 in1013.2 mb 0.00 in0.0 mm 0.00 in/hr0.0 mm/hr 0.00 in0.0 mm
04:00 AM 57.9°F14.4°C 56.8°F13.8°C 96% 5.6 mph SW9.0 kmh SW 8.3 mph13.4 kmh 29.91 in1012.9 mb 0.00 in0.0 mm 0.00 in/hr0.0 mm/hr 0.00 in0.0 mm
03:45 AM 58.1°F14.5°C 57.0°F13.9°C 96% 5.9 mph SSW9.5 kmh SSW 7.6 mph12.2 kmh 29.91 in1012.9 mb 0.00 in0.0 mm 0.00 in/hr0.0 mm/hr 0.00 in0.0 mm
03:30 AM 58.1°F14.5°C 57.0°F13.9°C 96% 6.8 mph S10.9 kmh S 10.7 mph17.2 kmh 29.91 in1012.9 mb 0.00 in0.0 mm 0.00 in/hr0.0 mm/hr 0.00 in0.0 mm
03:15 AM 58.3°F14.6°C 57.2°F14.0°C 96% 4.9 mph SW7.9 kmh SW 6.9 mph11.1 kmh 29.91 in1012.9 mb 0.00 in0.0 mm 0.00 in/hr0.0 mm/hr 0.00 in0.0 mm
03:00 AM 58.3°F14.6°C 57.2°F14.0°C 96% 3.9 mph SW6.3 kmh SW 6.0 mph9.7 kmh 29.91 in1012.9 mb 0.00 in0.0 mm 0.00 in/hr0.0 mm/hr 0.00 in0.0 mm
02:45 AM 58.1°F14.5°C 57.0°F13.9°C 96% 4.2 mph SW6.8 kmh SW 6.9 mph11.1 kmh 29.91 in1012.9 mb 0.00 in0.0 mm 0.00 in/hr0.0 mm/hr 0.00 in0.0 mm
02:30 AM 58.3°F14.6°C 57.2°F14.0°C 96% 4.1 mph WSW6.6 kmh WSW 6.0 mph9.7 kmh 29.91 in1012.9 mb 0.00 in0.0 mm 0.00 in/hr0.0 mm/hr 0.00 in0.0 mm
02:15 AM 58.3°F14.6°C 57.2°F14.0°C 96% 5.7 mph SW9.2 kmh SW 10.7 mph17.2 kmh 29.91 in1012.9 mb 0.00 in0.0 mm 0.00 in/hr0.0 mm/hr 0.00 in0.0 mm
02:00 AM 58.5°F14.7°C 57.3°F14.1°C 96% 5.9 mph WSW9.5 kmh WSW 7.6 mph12.2 kmh 29.91 in1012.9 mb 0.00 in0.0 mm 0.00 in/hr0.0 mm/hr 0.00 in0.0 mm
01:45 AM 58.6°F14.8°C 57.5°F14.2°C 96% 6.3 mph W10.1 kmh W 8.3 mph13.4 kmh 29.91 in1012.9 mb 0.00 in0.0 mm 0.00 in/hr0.0 mm/hr 0.00 in0.0 mm
01:30 AM 58.8°F14.9°C 57.7°F14.3°C 96% 6.5 mph WSW10.5 kmh WSW 9.8 mph15.8 kmh 29.91 in1012.9 mb 0.00 in0.0 mm 0.00 in/hr0.0 mm/hr 0.00 in0.0 mm
01:15 AM 58.8°F14.9°C 57.7°F14.3°C 96% 6.2 mph WSW10.0 kmh WSW 9.8 mph15.8 kmh 29.91 in1012.9 mb 0.00 in0.0 mm 0.00 in/hr0.0 mm/hr 0.00 in0.0 mm
01:00 AM 58.8°F14.9°C 57.7°F14.3°C 96% 6.4 mph SW10.3 kmh SW 9.2 mph14.8 kmh 29.91 in1012.9 mb 0.00 in0.0 mm 0.00 in/hr0.0 mm/hr 0.00 in0.0 mm
12:45 AM 58.8°F14.9°C 57.7°F14.3°C 96% 5.9 mph SW9.5 kmh SW 8.3 mph13.4 kmh 29.91 in1012.9 mb 0.00 in0.0 mm 0.00 in/hr0.0 mm/hr 0.00 in0.0 mm
12:30 AM 59.0°F15.0°C 57.9°F14.4°C 96% 6.1 mph SW9.8 kmh SW 10.7 mph17.2 kmh 29.91 in1012.9 mb 0.00 in0.0 mm 0.00 in/hr0.0 mm/hr 0.00 in0.0 mm
12:15 AM 59.2°F15.1°C 58.1°F14.5°C 96% 6.5 mph WSW10.5 kmh WSW 9.2 mph14.8 kmh 29.91 in1012.9 mb 0.00 in0.0 mm 0.00 in/hr0.0 mm/hr 0.00 in0.0 mm
12:00 AM 59.4°F15.2°C 58.2°F14.6°C 96% 5.9 mph W9.5 kmh W 7.6 mph12.2 kmh 29.91 in1012.9 mb 0.00 in0.0 mm 0.00 in/hr0.0 mm/hr 0.00 in0.0 mm